createdAt,value
2022-09-09T00:00:22.522Z,96344.28
2022-09-09T00:05:35.425Z,96356.69
2022-09-09T00:10:43.634Z,96349.16
2022-09-09T00:15:59.210Z,96364.25
2022-09-09T00:21:12.457Z,96359.91
2022-09-09T00:26:33.362Z,96354.56
2022-09-09T00:31:38.447Z,96352.72
2022-09-09T00:36:42.917Z,96339.69
2022-09-09T00:42:03.736Z,96349.16
2022-09-09T00:47:43.064Z,96357.59
2022-09-09T00:53:15.818Z,96348.84
2022-09-09T00:58:18.116Z,96330.00
2022-09-09T01:03:29.320Z,96361.09
2022-09-09T01:08:47.059Z,96366.66
2022-09-09T01:14:03.113Z,96351.53
2022-09-09T01:19:18.363Z,96332.56
2022-09-09T01:24:45.016Z,96360.47
2022-09-09T01:29:54.981Z,96341.78
2022-09-09T01:34:57.478Z,96344.88
2022-09-09T01:40:00.159Z,96328.97
2022-09-09T01:45:02.488Z,96322.13
2022-09-09T01:50:05.485Z,96347.94
2022-09-09T01:55:09.621Z,96333.94
2022-09-09T02:00:16.267Z,96328.38
2022-09-09T02:05:41.405Z,96347.09
2022-09-09T02:11:13.020Z,96346.03
2022-09-09T02:16:29.227Z,96320.34
2022-09-09T02:21:36.183Z,96327.31
2022-09-09T02:26:45.296Z,96334.78
2022-09-09T02:31:52.204Z,96336.69
2022-09-09T02:37:02.175Z,96338.25
2022-09-09T02:42:06.408Z,96338.88
2022-09-09T02:47:24.499Z,96345.63
2022-09-09T02:53:18.047Z,96329.50
2022-09-09T02:58:22.666Z,96332.22
2022-09-09T03:03:43.757Z,96320.69
2022-09-09T03:08:51.123Z,96320.69
2022-09-09T03:13:59.048Z,96322.69
2022-09-09T03:19:07.976Z,96325.19
2022-09-09T03:24:10.807Z,96309.75
2022-09-09T03:29:14.036Z,96319.31
2022-09-09T03:34:17.336Z,96317.84
2022-09-09T03:39:19.548Z,96326.06
2022-09-09T03:44:22.668Z,96328.16
2022-09-09T03:49:25.377Z,96327.81
2022-09-09T03:54:28.460Z,96315.84
2022-09-09T03:59:31.968Z,96321.81
2022-09-09T04:04:34.365Z,96342.88
2022-09-09T04:09:36.536Z,96337.22
2022-09-09T04:14:38.670Z,96335.09
2022-09-09T04:19:43.528Z,96344.91
2022-09-09T04:24:48.799Z,96327.63
2022-09-09T04:29:53.865Z,96333.38
2022-09-09T04:34:56.186Z,96340.34
2022-09-09T04:39:59.196Z,96350.38
2022-09-09T04:45:02.739Z,96336.78
2022-09-09T04:50:06.487Z,96340.56
2022-09-09T04:55:09.145Z,96343.59
2022-09-09T05:00:12.003Z,96346.00
2022-09-09T05:05:17.000Z,96347.00
2022-09-09T05:10:19.273Z,96334.13
2022-09-09T05:15:22.986Z,96330.00
2022-09-09T05:20:25.219Z,96336.66
2022-09-09T05:25:27.453Z,96338.94
2022-09-09T05:30:31.039Z,96341.72
2022-09-09T05:35:35.828Z,96335.66
2022-09-09T05:40:38.317Z,96334.25
2022-09-09T05:45:40.690Z,96312.19
2022-09-09T05:50:43.907Z,96282.97
2022-09-09T05:55:46.675Z,96279.00
2022-09-09T06:00:48.873Z,96284.81
2022-09-09T06:05:59.790Z,96253.91
2022-09-09T06:11:06.088Z,96260.69
2022-09-09T06:16:15.120Z,96220.09
2022-09-09T06:21:23.884Z,96233.66
2022-09-09T06:26:35.894Z,96230.72
2022-09-09T06:31:39.643Z,96228.81
2022-09-09T06:36:49.046Z,96223.75
2022-09-09T06:41:54.311Z,96232.88
2022-09-09T06:47:31.844Z,96222.72
2022-09-09T06:52:34.930Z,96230.69
2022-09-09T06:57:38.251Z,96219.50
2022-09-09T07:02:46.460Z,96209.16
2022-09-09T07:07:49.836Z,96204.56
2022-09-09T07:12:55.909Z,96215.81
2022-09-09T07:18:02.928Z,96217.97
2022-09-09T07:23:05.801Z,96221.03
2022-09-09T07:28:08.799Z,96214.38
2022-09-09T07:33:11.097Z,96193.28
2022-09-09T07:38:13.426Z,96210.25
2022-09-09T07:43:18.566Z,96203.16
2022-09-09T07:48:21.403Z,96199.03
2022-09-09T07:53:24.258Z,96202.97
2022-09-09T07:58:27.124Z,96205.00
2022-09-09T08:03:29.689Z,96205.81
2022-09-09T08:08:31.926Z,96195.81
2022-09-09T08:13:35.960Z,96203.00
2022-09-09T08:18:39.789Z,96197.00
2022-09-09T08:23:43.740Z,96199.84
2022-09-09T08:28:46.597Z,96183.25
2022-09-09T08:33:53.108Z,96177.06
2022-09-09T08:38:58.897Z,96161.59
2022-09-09T08:44:08.013Z,96167.75
2022-09-09T08:49:35.363Z,96172.75
2022-09-09T08:54:51.801Z,96169.69
2022-09-09T08:59:58.835Z,96157.97
2022-09-09T09:05:13.812Z,96161.53
2022-09-09T09:10:48.588Z,96152.19
2022-09-09T09:16:03.592Z,96150.78
2022-09-09T09:21:22.490Z,96152.66
2022-09-09T09:26:44.757Z,96143.81
2022-09-09T09:31:52.696Z,96124.69
2022-09-09T09:36:59.921Z,96150.28
2022-09-09T09:42:21.585Z,96140.28
2022-09-09T09:47:28.140Z,96118.19
2022-09-09T09:52:59.362Z,96114.75
2022-09-09T09:58:06.120Z,96130.69
2022-09-09T10:03:32.250Z,96117.50
2022-09-09T10:08:47.841Z,96125.50
2022-09-09T10:14:01.531Z,96134.88
2022-09-09T10:19:15.966Z,96144.69
2022-09-09T10:24:46.071Z,96138.94
2022-09-09T10:30:10.027Z,96122.06
2022-09-09T10:35:14.672Z,96144.59
2022-09-09T10:55:37.300Z,96135.28
2022-09-09T11:00:44.372Z,96141.22
2022-09-09T11:05:53.359Z,96131.38
2022-09-09T11:11:09.149Z,96146.63
2022-09-09T11:16:24.946Z,96133.91
2022-09-09T11:21:35.639Z,96140.81
2022-09-09T11:26:53.797Z,96118.09
2022-09-09T11:32:10.593Z,96133.97
2022-09-09T11:37:12.859Z,96127.63
2022-09-09T11:42:15.071Z,96125.44
2022-09-09T11:47:25.866Z,96126.16
2022-09-09T11:52:47.211Z,96117.91
2022-09-09T11:57:49.761Z,96107.50
2022-09-09T12:02:52.043Z,96087.03
2022-09-09T12:07:59.617Z,96086.47
2022-09-09T12:13:24.098Z,96078.13
2022-09-09T12:18:48.334Z,96096.38
2022-09-09T12:23:53.473Z,96105.78
2022-09-09T12:29:14.056Z,96083.84
2022-09-09T12:34:37.340Z,96093.41
2022-09-09T12:39:46.970Z,96088.84
2022-09-09T12:44:59.938Z,96078.44
2022-09-09T12:50:02.494Z,96078.03
2022-09-09T12:55:07.534Z,96064.50
2022-09-09T13:13:57.141Z,96051.78
2022-09-09T13:19:15.084Z,96069.84
2022-09-09T13:24:36.266Z,96069.78
2022-09-09T13:29:38.744Z,96064.00
2022-09-09T13:34:40.985Z,96057.13
2022-09-09T13:39:56.445Z,96054.38
2022-09-09T13:45:01.140Z,96047.56
2022-09-09T13:50:29.195Z,96052.28
2022-09-09T13:55:31.493Z,96032.59
2022-09-09T14:00:35.911Z,96053.09
2022-09-09T14:05:38.847Z,96044.66
2022-09-09T14:10:41.075Z,96019.19
2022-09-09T14:15:43.316Z,96018.66
2022-09-09T14:20:46.066Z,96026.28
2022-09-09T14:25:48.130Z,96044.69
2022-09-09T14:30:50.360Z,96031.19
2022-09-09T14:35:57.734Z,96040.25
2022-09-09T14:40:59.972Z,96047.50
2022-09-09T14:46:10.441Z,96043.88
2022-09-09T14:51:18.803Z,96058.00
2022-09-09T14:56:25.369Z,96058.59
2022-09-09T15:01:28.554Z,96048.03
2022-09-09T15:06:34.823Z,96053.63
2022-09-09T15:11:39.067Z,96075.16
2022-09-09T15:16:41.755Z,96059.78
2022-09-09T15:21:43.805Z,96078.88
2022-09-09T15:26:45.844Z,96050.47
2022-09-09T15:31:48.682Z,96083.34
2022-09-09T15:36:50.868Z,96064.94
2022-09-09T15:41:53.182Z,96070.75
2022-09-09T15:46:55.512Z,96072.56
2022-09-09T15:52:05.851Z,96085.50
2022-09-09T15:57:12.823Z,96087.81
2022-09-09T16:02:15.121Z,96067.09
2022-09-09T16:07:20.123Z,96099.34
2022-09-09T16:12:22.575Z,96092.13
2022-09-09T16:17:24.732Z,96085.41
2022-09-09T16:22:26.729Z,96094.53
2022-09-09T16:27:28.828Z,96109.56
2022-09-09T16:32:31.108Z,96099.59
2022-09-09T16:37:35.224Z,96100.59
2022-09-09T16:42:39.577Z,96123.22
2022-09-09T16:47:41.975Z,96102.91
2022-09-09T16:52:44.230Z,96121.50
2022-09-09T16:57:46.234Z,96128.38
2022-09-09T17:02:48.319Z,96117.66
2022-09-09T17:07:50.616Z,96126.50
2022-09-09T17:12:57.885Z,96133.38
2022-09-09T17:18:00.233Z,96129.56
2022-09-09T17:23:02.273Z,96133.19
2022-09-09T17:28:07.477Z,96138.16
2022-09-09T17:33:09.736Z,96125.34
2022-09-09T17:38:13.228Z,96133.53
2022-09-09T17:43:15.440Z,96161.41
2022-09-09T17:48:17.525Z,96149.25
2022-09-09T17:53:19.691Z,96154.91
2022-09-09T17:58:22.819Z,96173.94
2022-09-09T18:03:25.962Z,96167.91
2022-09-09T18:08:30.189Z,96180.41
2022-09-09T18:13:35.726Z,96183.56
2022-09-09T18:18:38.152Z,96177.06
2022-09-09T18:23:43.006Z,96193.72
2022-09-09T18:28:49.540Z,96189.06
2022-09-09T18:33:53.733Z,96195.72
2022-09-09T18:38:59.559Z,96197.88
2022-09-09T18:44:05.919Z,96210.53
2022-09-09T18:49:08.692Z,96206.50
2022-09-09T18:54:20.474Z,96201.81
2022-09-09T18:59:24.133Z,96198.91
2022-09-09T19:04:27.606Z,96208.97
2022-09-09T19:09:32.570Z,96194.81
2022-09-09T19:14:35.180Z,96203.00
2022-09-09T19:19:37.465Z,96182.91
2022-09-09T19:24:40.799Z,96187.88
2022-09-09T19:29:44.497Z,96176.56
2022-09-09T19:34:46.662Z,96185.09
2022-09-09T19:39:49.841Z,96185.63
2022-09-09T19:44:54.286Z,96176.28
2022-09-09T19:49:56.372Z,96177.56
2022-09-09T19:55:01.491Z,96163.88
2022-09-09T20:00:04.604Z,96170.97
2022-09-09T20:05:14.173Z,96166.81
2022-09-09T20:10:19.256Z,96157.03
2022-09-09T20:15:21.619Z,96148.84
2022-09-09T20:20:23.612Z,96165.84
2022-09-09T20:25:25.837Z,96139.19
2022-09-09T20:30:28.000Z,96143.38
2022-09-09T20:35:30.214Z,96155.78
2022-09-09T20:40:33.502Z,96142.38
2022-09-09T20:45:39.395Z,96142.94
2022-09-09T20:50:41.720Z,96151.03
2022-09-09T20:55:44.198Z,96156.78
2022-09-09T21:00:46.772Z,96155.78
2022-09-09T21:05:51.087Z,96154.16
2022-09-09T21:10:53.501Z,96129.28
2022-09-09T21:15:55.590Z,96151.88
2022-09-09T21:20:57.713Z,96145.44
2022-09-09T21:26:00.127Z,96149.91
2022-09-09T21:31:03.046Z,96141.56
2022-09-09T21:36:06.777Z,96131.59
2022-09-09T21:41:13.953Z,96132.59
2022-09-09T21:46:17.994Z,96138.19
2022-09-09T21:51:20.297Z,96126.97
2022-09-09T21:56:22.362Z,96135.97
2022-09-09T22:01:26.409Z,96137.41
2022-09-09T22:06:28.771Z,96142.41
2022-09-09T22:11:31.693Z,96129.50
2022-09-09T22:16:34.024Z,96121.84
2022-09-09T22:21:36.265Z,96121.44
2022-09-09T22:26:39.328Z,96124.69
2022-09-09T22:31:41.387Z,96119.09
2022-09-09T22:36:43.460Z,96130.28
2022-09-09T22:41:46.420Z,96118.56
2022-09-09T22:46:48.965Z,96106.13
2022-09-09T22:51:51.064Z,96115.00
2022-09-09T22:56:53.191Z,96105.41
2022-09-09T23:01:59.046Z,96089.44
2022-09-09T23:07:01.251Z,96096.25
2022-09-09T23:12:04.312Z,96086.50
2022-09-09T23:17:08.958Z,96089.69
2022-09-09T23:22:11.793Z,96078.94
2022-09-09T23:27:13.855Z,96101.53
2022-09-09T23:32:17.779Z,96097.25
2022-09-09T23:37:20.437Z,96083.38
2022-09-09T23:42:24.017Z,96082.81
2022-09-09T23:47:26.270Z,96071.78
2022-09-09T23:52:28.275Z,96091.28
2022-09-09T23:57:30.508Z,96089.69
